SAS753 EKCH-EPGD
Flight info
| Callsign | SAS753 |
|---|---|
| Flight time | 0h 51m |
| Altitude | 33000 |
| Route | SIMEG Z491 TELMO DCT ASBAX DCT RUMAR L983 DOMAG T240 OGDAV |
| Aircraft | B736/M-SDE2E3FGHIRWXY/L |
Departure
| Time | 2026-05-04 15:27 |
|---|---|
| Airport | Copenhagen Kastrup Airport (EKCH) |
Arrival
| Time | 2026-05-04 16:19 |
|---|---|
| Airport | Gdańsk Lech Wałęsa Airport (EPGD) |
| Time | Latitude | Longitude | Altitude | Speed | Heading |
|---|---|---|---|---|---|
| 2026-05-04 15:01 | 55.62608 | 12.64899 | 23 ft | 0 kts | 91° |
| 2026-05-04 15:16 | 55.62608 | 12.64896 | 23 ft | 2 kts | 91° |
| 2026-05-04 15:17 | 55.62609 | 12.64852 | 23 ft | 4 kts | 91° |
| 2026-05-04 15:17 | 55.62623 | 12.64779 | 26 ft | 4 kts | 167° |
| 2026-05-04 15:17 | 55.62647 | 12.64782 | 23 ft | 3 kts | 192° |
| 2026-05-04 15:18 | 55.62652 | 12.64784 | 23 ft | 1 kts | 192° |
| 2026-05-04 15:21 | 55.62644 | 12.64781 | 24 ft | 3 kts | 192° |
| 2026-05-04 15:21 | 55.62607 | 12.64769 | 24 ft | 7 kts | 186° |
| 2026-05-04 15:21 | 55.62503 | 12.64773 | 23 ft | 7 kts | 179° |
| 2026-05-04 15:22 | 55.62454 | 12.64777 | 23 ft | 7 kts | 176° |
| 2026-05-04 15:22 | 55.62398 | 12.64782 | 23 ft | 9 kts | 177° |
| 2026-05-04 15:22 | 55.62307 | 12.64627 | 25 ft | 10 kts | 246° |
| 2026-05-04 15:23 | 55.62277 | 12.64504 | 23 ft | 12 kts | 246° |
| 2026-05-04 15:23 | 55.62250 | 12.64407 | 22 ft | 14 kts | 237° |
| 2026-05-04 15:23 | 55.62164 | 12.64313 | 24 ft | 15 kts | 205° |
| 2026-05-04 15:23 | 55.62073 | 12.64237 | 23 ft | 14 kts | 206° |
| 2026-05-04 15:24 | 55.61875 | 12.64074 | 23 ft | 15 kts | 194° |
| 2026-05-04 15:24 | 55.61761 | 12.64080 | 23 ft | 0 kts | 175° |
| 2026-05-04 15:25 | 55.61760 | 12.64080 | 23 ft | 1 kts | 175° |
| 2026-05-04 15:26 | 55.61676 | 12.64092 | 27 ft | 12 kts | 175° |
| 2026-05-04 15:26 | 55.61605 | 12.64037 | 29 ft | 12 kts | 221° |
| 2026-05-04 15:26 | 55.60988 | 12.63083 | 30 ft | 129 kts | 221° |
| 2026-05-04 15:27 | 55.60211 | 12.61871 | 199 ft | 170 kts | 224° |
| 2026-05-04 15:27 | 55.58363 | 12.59177 | 2028 ft | 176 kts | 222° |
| 2026-05-04 15:28 | 55.56336 | 12.56148 | 3184 ft | 222 kts | 220° |
| 2026-05-04 15:28 | 55.54843 | 12.55071 | 3848 ft | 237 kts | 201° |
| 2026-05-04 15:28 | 55.51699 | 12.53220 | 5611 ft | 240 kts | 204° |
| 2026-05-04 15:29 | 55.50122 | 12.52254 | 6518 ft | 240 kts | 204° |
| 2026-05-04 15:30 | 55.43108 | 12.51038 | 9881 ft | 297 kts | 150° |
| 2026-05-04 15:30 | 55.40328 | 12.61700 | 12045 ft | 347 kts | 106° |
| 2026-05-04 15:31 | 55.39031 | 12.70001 | 13897 ft | 357 kts | 109° |
| 2026-05-04 15:31 | 55.38318 | 12.74213 | 14745 ft | 362 kts | 109° |
| 2026-05-04 15:32 | 55.36078 | 12.87169 | 17411 ft | 377 kts | 109° |
| 2026-05-04 15:32 | 55.34528 | 12.96116 | 19044 ft | 388 kts | 110° |
| 2026-05-04 15:33 | 55.32965 | 13.05083 | 20610 ft | 396 kts | 110° |
| 2026-05-04 15:34 | 55.30482 | 13.19211 | 22972 ft | 412 kts | 110° |
| 2026-05-04 15:34 | 55.29629 | 13.24043 | 23687 ft | 417 kts | 111° |
| 2026-05-04 15:34 | 55.27888 | 13.33880 | 24981 ft | 428 kts | 111° |
| 2026-05-04 15:35 | 55.26094 | 13.43968 | 26239 ft | 438 kts | 112° |
| 2026-05-04 15:35 | 55.25175 | 13.49088 | 26851 ft | 443 kts | 113° |
| 2026-05-04 15:35 | 55.23979 | 13.54054 | 27440 ft | 442 kts | 123° |
| 2026-05-04 15:36 | 55.20945 | 13.63502 | 28660 ft | 449 kts | 127° |
| 2026-05-04 15:36 | 55.19368 | 13.68239 | 29245 ft | 454 kts | 127° |
| 2026-05-04 15:36 | 55.17791 | 13.73056 | 29826 ft | 458 kts | 126° |
| 2026-05-04 15:37 | 55.16221 | 13.77936 | 30334 ft | 463 kts | 126° |
| 2026-05-04 15:37 | 55.14651 | 13.82872 | 30839 ft | 465 kts | 125° |
| 2026-05-04 15:37 | 55.13080 | 13.87835 | 31353 ft | 467 kts | 125° |
| 2026-05-04 15:37 | 55.11510 | 13.92793 | 31936 ft | 466 kts | 125° |
| 2026-05-04 15:38 | 55.09958 | 13.97679 | 32580 ft | 464 kts | 125° |
| 2026-05-04 15:38 | 55.08388 | 14.02595 | 32940 ft | 466 kts | 125° |
| 2026-05-04 15:38 | 55.06025 | 14.12605 | 32935 ft | 473 kts | 108° |
| 2026-05-04 15:39 | 55.05308 | 14.24098 | 32940 ft | 481 kts | 92° |
| 2026-05-04 15:39 | 55.05360 | 14.35628 | 32907 ft | 462 kts | 91° |
| 2026-05-04 15:40 | 55.05393 | 14.41063 | 32911 ft | 448 kts | 92° |
| 2026-05-04 15:40 | 55.05401 | 14.51870 | 32941 ft | 446 kts | 93° |
| 2026-05-04 15:41 | 55.05358 | 14.62642 | 32943 ft | 448 kts | 93° |
| 2026-05-04 15:41 | 55.05299 | 14.73516 | 32941 ft | 449 kts | 94° |
| 2026-05-04 15:42 | 55.05232 | 14.84408 | 32948 ft | 449 kts | 94° |
| 2026-05-04 15:42 | 55.05158 | 14.95285 | 32937 ft | 448 kts | 94° |
| 2026-05-04 15:43 | 55.05075 | 15.06145 | 32930 ft | 447 kts | 94° |
| 2026-05-04 15:43 | 55.04980 | 15.16981 | 32926 ft | 446 kts | 94° |
| 2026-05-04 15:44 | 55.04830 | 15.27776 | 32925 ft | 445 kts | 95° |
| 2026-05-04 15:44 | 55.04658 | 15.38549 | 32919 ft | 445 kts | 95° |
| 2026-05-04 15:45 | 55.04481 | 15.49335 | 32917 ft | 445 kts | 95° |
| 2026-05-04 15:45 | 55.04299 | 15.60119 | 32916 ft | 445 kts | 95° |
| 2026-05-04 15:46 | 55.04109 | 15.70921 | 32914 ft | 446 kts | 95° |
| 2026-05-04 15:46 | 55.03908 | 15.81738 | 32914 ft | 446 kts | 95° |
| 2026-05-04 15:47 | 55.03697 | 15.92548 | 32912 ft | 446 kts | 95° |
| 2026-05-04 15:47 | 55.03479 | 16.03358 | 32910 ft | 446 kts | 95° |
| 2026-05-04 15:48 | 55.03188 | 16.14159 | 32909 ft | 446 kts | 97° |
| 2026-05-04 15:48 | 55.02594 | 16.30316 | 32908 ft | 445 kts | 97° |
| 2026-05-04 15:49 | 55.02235 | 16.41034 | 32630 ft | 448 kts | 96° |
| 2026-05-04 15:49 | 55.02056 | 16.46526 | 32186 ft | 447 kts | 96° |
| 2026-05-04 15:49 | 55.01882 | 16.51851 | 31681 ft | 447 kts | 96° |
| 2026-05-04 15:50 | 55.01702 | 16.57254 | 31123 ft | 448 kts | 96° |
| 2026-05-04 15:50 | 55.01516 | 16.62696 | 30477 ft | 451 kts | 96° |
| 2026-05-04 15:50 | 55.01328 | 16.68142 | 30036 ft | 448 kts | 96° |
| 2026-05-04 15:50 | 55.01139 | 16.73545 | 29555 ft | 445 kts | 97° |
| 2026-05-04 15:51 | 55.00950 | 16.78901 | 29109 ft | 440 kts | 97° |
| 2026-05-04 15:51 | 55.00760 | 16.84185 | 28679 ft | 435 kts | 97° |
| 2026-05-04 15:51 | 55.00569 | 16.89426 | 28248 ft | 431 kts | 97° |
| 2026-05-04 15:51 | 55.00377 | 16.94620 | 27823 ft | 428 kts | 97° |
| 2026-05-04 15:52 | 55.00184 | 16.99769 | 27408 ft | 424 kts | 97° |
| 2026-05-04 15:52 | 54.99992 | 17.04865 | 26986 ft | 421 kts | 97° |
| 2026-05-04 15:52 | 54.99797 | 17.09936 | 26573 ft | 418 kts | 97° |
| 2026-05-04 15:52 | 54.99603 | 17.14971 | 26172 ft | 415 kts | 97° |
| 2026-05-04 15:53 | 54.99407 | 17.19967 | 25772 ft | 412 kts | 97° |
| 2026-05-04 15:53 | 54.99211 | 17.24936 | 25385 ft | 410 kts | 97° |
| 2026-05-04 15:53 | 54.99014 | 17.29867 | 24987 ft | 408 kts | 97° |
| 2026-05-04 15:53 | 54.98816 | 17.34782 | 24592 ft | 406 kts | 97° |
| 2026-05-04 15:54 | 54.98617 | 17.39667 | 24202 ft | 404 kts | 98° |
| 2026-05-04 15:54 | 54.98417 | 17.44536 | 23801 ft | 402 kts | 98° |
| 2026-05-04 15:54 | 54.98216 | 17.49391 | 23381 ft | 401 kts | 98° |
| 2026-05-04 15:54 | 54.98014 | 17.54224 | 22937 ft | 399 kts | 97° |
| 2026-05-04 15:55 | 54.97812 | 17.59018 | 22517 ft | 396 kts | 97° |
| 2026-05-04 15:55 | 54.97559 | 17.63772 | 22098 ft | 391 kts | 104° |
| 2026-05-04 15:55 | 54.96769 | 17.68211 | 21742 ft | 378 kts | 120° |
| 2026-05-04 15:55 | 54.95479 | 17.72105 | 21396 ft | 365 kts | 134° |
| 2026-05-04 15:56 | 54.93824 | 17.75343 | 21027 ft | 356 kts | 141° |
| 2026-05-04 15:56 | 54.92104 | 17.78414 | 20650 ft | 353 kts | 142° |
| 2026-05-04 15:56 | 54.90388 | 17.81453 | 20253 ft | 351 kts | 142° |
| 2026-05-04 15:56 | 54.88689 | 17.84481 | 19876 ft | 350 kts | 141° |
| 2026-05-04 15:57 | 54.87000 | 17.87513 | 19514 ft | 348 kts | 141° |
| 2026-05-04 15:57 | 54.85322 | 17.90541 | 19139 ft | 347 kts | 141° |
| 2026-05-04 15:57 | 54.83653 | 17.93562 | 18765 ft | 346 kts | 141° |
| 2026-05-04 15:57 | 54.81990 | 17.96566 | 18381 ft | 346 kts | 140° |
| 2026-05-04 15:58 | 54.80341 | 17.99534 | 17974 ft | 344 kts | 141° |
| 2026-05-04 15:58 | 54.78533 | 18.02283 | 17453 ft | 340 kts | 149° |
| 2026-05-04 15:58 | 54.76663 | 18.04672 | 17059 ft | 337 kts | 151° |
| 2026-05-04 15:58 | 54.74763 | 18.07025 | 16670 ft | 335 kts | 151° |
| 2026-05-04 15:59 | 54.72916 | 18.09350 | 16289 ft | 333 kts | 150° |
| 2026-05-04 15:59 | 54.71061 | 18.11736 | 15918 ft | 331 kts | 149° |
| 2026-05-04 15:59 | 54.69222 | 18.14123 | 15547 ft | 329 kts | 149° |
| 2026-05-04 15:59 | 54.67405 | 18.16511 | 15177 ft | 329 kts | 146° |
| 2026-05-04 16:00 | 54.65744 | 18.19261 | 14829 ft | 331 kts | 139° |
| 2026-05-04 16:00 | 54.64209 | 18.22220 | 14462 ft | 330 kts | 136° |
| 2026-05-04 16:00 | 54.62710 | 18.25211 | 14109 ft | 328 kts | 136° |
| 2026-05-04 16:00 | 54.61214 | 18.28182 | 13741 ft | 327 kts | 136° |
| 2026-05-04 16:01 | 54.59717 | 18.31118 | 13336 ft | 326 kts | 136° |
| 2026-05-04 16:01 | 54.58216 | 18.34029 | 12938 ft | 323 kts | 137° |
| 2026-05-04 16:01 | 54.56719 | 18.36906 | 12561 ft | 321 kts | 137° |
| 2026-05-04 16:01 | 54.55235 | 18.39743 | 12187 ft | 318 kts | 137° |
| 2026-05-04 16:02 | 54.53758 | 18.42558 | 11833 ft | 315 kts | 137° |
| 2026-05-04 16:02 | 54.52289 | 18.45349 | 11469 ft | 313 kts | 137° |
| 2026-05-04 16:02 | 54.49379 | 18.50864 | 10759 ft | 309 kts | 138° |
| 2026-05-04 16:03 | 54.47932 | 18.53602 | 10396 ft | 308 kts | 137° |
| 2026-05-04 16:03 | 54.46512 | 18.56290 | 10230 ft | 299 kts | 138° |
| 2026-05-04 16:03 | 54.45130 | 18.58902 | 10078 ft | 291 kts | 138° |
| 2026-05-04 16:03 | 54.43785 | 18.61440 | 9934 ft | 283 kts | 138° |
| 2026-05-04 16:04 | 54.42511 | 18.63973 | 9770 ft | 281 kts | 129° |
| 2026-05-04 16:04 | 54.40918 | 18.70154 | 9183 ft | 283 kts | 117° |
| 2026-05-04 16:04 | 54.40163 | 18.73263 | 8883 ft | 281 kts | 117° |
| 2026-05-04 16:05 | 54.39405 | 18.76333 | 8605 ft | 280 kts | 118° |
| 2026-05-04 16:05 | 54.38646 | 18.79391 | 8324 ft | 278 kts | 118° |
| 2026-05-04 16:05 | 54.37129 | 18.85457 | 7788 ft | 275 kts | 118° |
| 2026-05-04 16:06 | 54.36384 | 18.88420 | 7529 ft | 273 kts | 117° |
| 2026-05-04 16:06 | 54.34386 | 18.96363 | 6877 ft | 268 kts | 117° |
| 2026-05-04 16:07 | 54.33427 | 19.00171 | 6770 ft | 256 kts | 117° |
| 2026-05-04 16:07 | 54.31350 | 19.08403 | 5954 ft | 258 kts | 117° |
| 2026-05-04 16:08 | 54.30623 | 19.11215 | 5686 ft | 258 kts | 117° |
| 2026-05-04 16:08 | 54.27581 | 19.17907 | 5126 ft | 223 kts | 174° |
| 2026-05-04 16:09 | 54.25086 | 19.16256 | 4773 ft | 195 kts | 241° |
| 2026-05-04 16:09 | 54.24699 | 19.11699 | 4248 ft | 196 kts | 271° |
| 2026-05-04 16:10 | 54.24875 | 19.07073 | 3803 ft | 195 kts | 272° |
| 2026-05-04 16:11 | 54.26120 | 19.00525 | 3098 ft | 197 kts | 282° |
| 2026-05-04 16:11 | 54.26442 | 18.98232 | 3032 ft | 199 kts | 282° |
| 2026-05-04 16:12 | 54.27277 | 18.92256 | 3008 ft | 193 kts | 282° |
| 2026-05-04 16:12 | 54.28297 | 18.85495 | 3001 ft | 197 kts | 288° |
| 2026-05-04 16:13 | 54.29314 | 18.81105 | 2997 ft | 199 kts | 290° |
| 2026-05-04 16:13 | 54.30376 | 18.76739 | 2998 ft | 198 kts | 290° |
| 2026-05-04 16:14 | 54.31435 | 18.72399 | 2972 ft | 194 kts | 290° |
| 2026-05-04 16:14 | 54.32398 | 18.68458 | 2872 ft | 167 kts | 291° |
| 2026-05-04 16:15 | 54.33635 | 18.63403 | 2286 ft | 136 kts | 291° |
| 2026-05-04 16:16 | 54.34315 | 18.60619 | 1946 ft | 123 kts | 291° |
| 2026-05-04 16:16 | 54.35299 | 18.56608 | 1471 ft | 122 kts | 292° |
| 2026-05-04 16:17 | 54.35959 | 18.53917 | 1106 ft | 122 kts | 290° |
| 2026-05-04 16:18 | 54.36931 | 18.49967 | 636 ft | 115 kts | 291° |
| 2026-05-04 16:18 | 54.37245 | 18.48690 | 511 ft | 118 kts | 291° |
| 2026-05-04 16:19 | 54.37851 | 18.46248 | 455 ft | 36 kts | 293° |
| 2026-05-04 16:19 | 54.38021 | 18.45808 | 454 ft | 20 kts | 320° |
| 2026-05-04 16:20 | 54.38117 | 18.45898 | 455 ft | 9 kts | 112° |
| 2026-05-04 16:20 | 54.38106 | 18.46040 | 458 ft | 6 kts | 59° |
| 2026-05-04 16:21 | 54.38147 | 18.46293 | 458 ft | 10 kts | 114° |
| 2026-05-04 16:22 | 54.38136 | 18.46425 | 459 ft | 4 kts | 38° |
| 2026-05-04 16:22 | 54.38161 | 18.46445 | 459 ft | 0 kts | 23° |